Time;durP1;ratioP1;P1;durP2;ratioP2;P2;SDS_P1;SDS_P2;PMS_P1;PMS_P2;Temp;Humidity;BMP_temperature;BMP_pressure;BME280_temperature;BME280_humidity;BME280_pressure;Samples;Min_cycle;Max_cycle;Signal;HPM_P1;HPM_P2
2021/08/01 00:01:48;;;;;;;;;;;;;;;22.51;60.40;99125.31;5265257;27;20696;-94
2021/08/01 00:04:13;;;;;;;;;;;;;;;22.52;60.40;99127.81;5281541;27;19994;-94
2021/08/01 00:06:39;;;;;;;;;;;;;;;22.52;60.41;99127.00;5262883;27;19968;-94
2021/08/01 00:09:04;;;;;;;;;;;;;;;22.61;60.41;99126.13;5262904;27;20086;-94
2021/08/01 00:11:29;;;;;;;;;;;;;;;22.60;60.41;99119.16;5262723;27;19987;-94
2021/08/01 00:13:55;;;;;;;;;;;;;;;22.48;60.41;99115.81;5280991;27;19984;-93
2021/08/01 00:16:21;;;;;;;;;;;;;;;22.53;60.40;99102.97;5280940;27;20295;-94
2021/08/01 00:18:47;;;;;;;;;;;;;;;22.50;60.40;99113.03;5277276;27;19976;-93
2021/08/01 00:21:12;;;;;;;;;;;;;;;22.51;60.40;99112.88;5258558;27;19964;-93
2021/08/01 00:23:37;;;;;;;;;;;;;;;22.48;60.41;99113.19;5241526;27;20056;-94
2021/08/01 00:26:03;;;;;;;;;;;;;;;22.51;60.40;99106.75;5241704;27;20239;-94
2021/08/01 00:28:28;;;;;;;;;;;;;;;22.47;60.40;99111.47;5242029;27;20036;-94
2021/08/01 00:30:53;;;;;;;;;;;;;;;22.53;60.40;99110.94;5242021;27;20297;-94
2021/08/01 00:33:18;;;;;;;;;;;;;;;22.47;60.40;99107.97;5241432;27;19960;-94
2021/08/01 00:35:44;;;;;;;;;;;;;;;22.40;60.39;99115.66;5242068;27;19976;-95
2021/08/01 00:38:09;;;;;;;;;;;;;;;22.30;60.39;99104.22;5242281;27;19968;-93
2021/08/01 00:40:35;;;;;;;;;;;;;;;22.24;60.38;99102.13;5259128;27;19980;-92
2021/08/01 00:43:00;;;;;;;;;;;;;;;22.30;60.39;99101.59;5240646;27;19969;-92
2021/08/01 00:45:25;;;;;;;;;;;;;;;22.42;60.40;99092.50;5259133;27;20021;-93
2021/08/01 00:47:50;;;;;;;;;;;;;;;22.43;60.40;99093.34;5259529;27;19960;-93
2021/08/01 00:50:16;;;;;;;;;;;;;;;22.51;60.40;99094.31;5241329;27;19996;-93
2021/08/01 00:52:41;;;;;;;;;;;;;;;22.58;60.40;99089.28;5241227;27;19985;-92
2021/08/01 00:55:07;;;;;;;;;;;;;;;22.52;60.40;99085.38;5258856;27;19971;-93
2021/08/01 00:57:32;;;;;;;;;;;;;;;22.32;60.38;99092.50;5240825;27;19995;-93
2021/08/01 00:59:57;;;;;;;;;;;;;;;22.52;60.40;99101.31;5241165;27;20011;-92
2021/08/01 01:02:56;;;;;;;;;;;;;;;22.30;60.39;99114.84;5259057;27;20288;-92
2021/08/01 01:05:25;;;;;;;;;;;;;;;22.40;60.39;99152.78;5252066;27;19968;-91
2021/08/01 01:07:51;;;;;;;;;;;;;;;21.78;60.36;99204.25;5254296;27;19987;-92
2021/08/01 01:10:29;;;;;;;;;;;;;;;21.65;60.36;99219.50;5259089;27;19976;-91
2021/08/01 01:13:10;;;;;;;;;;;;;;;21.59;60.36;99238.59;5236779;27;20249;-92
2021/08/01 01:15:36;;;;;;;;;;;;;;;21.76;60.36;99244.09;5281021;27;19975;-93
2021/08/01 01:18:01;;;;;;;;;;;;;;;21.88;60.37;99262.56;5263159;27;20015;-92
2021/08/01 01:20:47;;;;;;;;;;;;;;;22.20;60.38;99279.19;5262991;27;19973;-94
2021/08/01 01:23:15;;;;;;;;;;;;;;;22.22;60.39;99301.09;5268946;27;19968;-91
2021/08/01 01:25:51;;;;;;;;;;;;;;;22.47;60.39;99310.38;5300512;27;20015;-93
2021/08/01 01:28:24;;;;;;;;;;;;;;;22.61;60.40;99303.88;5262156;27;19982;-92
2021/08/01 01:30:51;;;;;;;;;;;;;;;22.44;60.40;99270.03;5262392;27;20328;-93
2021/08/01 01:33:17;;;;;;;;;;;;;;;22.32;60.38;99280.78;5281100;27;20025;-93
2021/08/01 01:35:43;;;;;;;;;;;;;;;22.27;60.39;99275.03;5280822;27;19980;-93
2021/08/01 01:38:09;;;;;;;;;;;;;;;22.26;60.39;99246.84;5280058;27;19968;-91
2021/08/01 01:40:34;;;;;;;;;;;;;;;22.28;60.39;99210.44;5262381;27;19985;-91
2021/08/01 01:42:59;;;;;;;;;;;;;;;22.19;60.39;99205.09;5262232;27;19984;-91
2021/08/01 01:45:25;;;;;;;;;;;;;;;22.28;60.39;99207.78;5262308;27;20024;-92
2021/08/01 01:47:51;;;;;;;;;;;;;;;22.33;60.39;99202.06;5262965;27;20336;-93
2021/08/01 01:50:19;;;;;;;;;;;;;;;22.34;60.40;99201.09;5263045;27;19972;-93
2021/08/01 01:52:47;;;;;;;;;;;;;;;22.25;60.38;99207.22;5266947;27;19976;-94
2021/08/01 01:55:13;;;;;;;;;;;;;;;22.12;60.38;99196.84;5287736;27;19940;-91
2021/08/01 01:57:38;;;;;;;;;;;;;;;21.74;60.36;99203.66;5262414;27;19990;-92
2021/08/01 02:00:03;;;;;;;;;;;;;;;22.03;60.38;99202.94;5262465;27;19984;-92
2021/08/01 02:02:29;;;;;;;;;;;;;;;22.07;60.37;99201.72;5262215;27;20016;-92
2021/08/01 02:04:54;;;;;;;;;;;;;;;22.20;60.38;99189.03;5262132;27;19994;-93
2021/08/01 02:07:20;;;;;;;;;;;;;;;22.27;60.39;99176.94;5263041;27;19992;-93
2021/08/01 02:10:04;;;;;;;;;;;;;;;22.34;60.39;99159.50;5281016;27;19980;-93
2021/08/01 02:12:33;;;;;;;;;;;;;;;22.30;60.38;99144.84;5300240;27;19980;-93
2021/08/01 02:15:05;;;;;;;;;;;;;;;22.46;60.39;99130.19;5262633;27;19976;-94
2021/08/01 02:17:32;;;;;;;;;;;;;;;22.49;60.40;99108.72;5280709;27;19976;-92
2021/08/01 02:19:58;;;;;;;;;;;;;;;22.68;60.41;99092.75;5299374;27;19979;-90
2021/08/01 02:22:23;;;;;;;;;;;;;;;22.71;60.40;99078.34;5279481;27;20229;-90
2021/08/01 02:24:48;;;;;;;;;;;;;;;22.79;60.41;99074.03;5299545;27;20011;-90
2021/08/01 02:27:13;;;;;;;;;;;;;;;22.83;60.41;99078.09;5279792;27;19972;-92
2021/08/01 02:29:38;;;;;;;;;;;;;;;22.76;60.41;99084.94;5279992;27;20281;-91
2021/08/01 02:32:04;;;;;;;;;;;;;;;22.74;60.41;99081.59;5279859;27;19980;-91
2021/08/01 02:34:29;;;;;;;;;;;;;;;22.86;60.41;99085.78;5279557;27;20314;-91
2021/08/01 02:36:55;;;;;;;;;;;;;;;22.89;60.42;99069.56;5261821;27;20003;-92
2021/08/01 02:39:21;;;;;;;;;;;;;;;22.87;60.41;99079.47;5279822;27;19979;-90
2021/08/01 02:41:46;;;;;;;;;;;;;;;22.82;60.41;99089.69;5279604;27;19956;-91
2021/08/01 02:44:13;;;;;;;;;;;;;;;23.00;60.42;99081.00;5299372;27;19978;-92
2021/08/01 02:46:38;;;;;;;;;;;;;;;22.91;60.41;99072.91;5298982;27;19997;-91
2021/08/01 02:49:05;;;;;;;;;;;;;;;22.91;60.42;99053.50;5279668;27;20638;-90
2021/08/01 02:51:30;;;;;;;;;;;;;;;22.85;60.41;99040.81;5261681;27;20305;-91
2021/08/01 02:53:55;;;;;;;;;;;;;;;22.93;60.41;99039.09;5261468;27;19980;-91
2021/08/01 02:56:21;;;;;;;;;;;;;;;22.94;60.41;99050.53;5279519;27;19969;-90
2021/08/01 02:58:50;;;;;;;;;;;;;;;23.03;60.42;99043.56;5261609;27;19984;-91
2021/08/01 03:01:15;;;;;;;;;;;;;;;23.09;60.42;99030.53;5280006;27;19976;-90
2021/08/01 03:03:40;;;;;;;;;;;;;;;23.10;60.42;99024.22;5299454;27;19980;-91
2021/08/01 03:06:06;;;;;;;;;;;;;;;23.20;60.42;99024.22;5261944;27;20352;-91
2021/08/01 03:08:32;;;;;;;;;;;;;;;23.27;60.42;99028.78;5280233;27;19996;-90
2021/08/01 03:10:57;;;;;;;;;;;;;;;23.40;60.43;99030.22;5299695;27;19972;-91
2021/08/01 03:13:22;;;;;;;;;;;;;;;23.32;60.43;99032.81;5266120;27;20516;-91
2021/08/01 03:15:48;;;;;;;;;;;;;;;23.26;60.43;99042.19;5308117;27;20504;-91
2021/08/01 03:18:13;;;;;;;;;;;;;;;23.32;60.43;99038.94;5288306;27;20312;-91
2021/08/01 03:20:38;;;;;;;;;;;;;;;23.27;60.42;99034.09;5282613;27;20033;-92
2021/08/01 03:23:03;;;;;;;;;;;;;;;23.19;60.43;99035.81;5263571;27;19975;-92
2021/08/01 03:25:29;;;;;;;;;;;;;;;23.27;60.44;99047.34;5262709;27;20026;-93
2021/08/01 03:27:54;;;;;;;;;;;;;;;23.21;60.43;99047.97;5280255;27;19992;-92
2021/08/01 03:30:19;;;;;;;;;;;;;;;23.11;60.42;99047.13;5261985;27;19972;-92
2021/08/01 03:32:44;;;;;;;;;;;;;;;23.18;60.42;99050.03;5262150;27;19984;-92
2021/08/01 03:35:10;;;;;;;;;;;;;;;23.17;60.43;99040.41;5261700;27;20020;-92
2021/08/01 03:37:35;;;;;;;;;;;;;;;23.01;60.42;99029.59;5262381;27;19991;-93
2021/08/01 03:40:00;;;;;;;;;;;;;;;22.89;60.41;99020.94;5262452;27;19979;-92
2021/08/01 03:42:25;;;;;;;;;;;;;;;22.93;60.42;99017.03;5261925;27;20233;-92
2021/08/01 03:44:51;;;;;;;;;;;;;;;22.84;60.41;99018.75;5262011;27;19988;-92
2021/08/01 03:47:16;;;;;;;;;;;;;;;22.92;60.42;99028.62;5261825;27;19984;-91
2021/08/01 03:49:43;;;;;;;;;;;;;;;22.88;60.42;99036.03;5261447;27;19984;-91
2021/08/01 03:52:08;;;;;;;;;;;;;;;22.94;60.41;99050.53;5279456;27;19994;-92
2021/08/01 03:54:34;;;;;;;;;;;;;;;22.91;60.41;99074.72;5261348;27;19964;-93
2021/08/01 03:56:59;;;;;;;;;;;;;;;22.87;60.41;99102.53;5261987;27;19979;-91
2021/08/01 03:59:24;;;;;;;;;;;;;;;22.91;60.42;99103.91;5267873;27;20001;-91
2021/08/01 04:01:49;;;;;;;;;;;;;;;22.99;60.42;99080.16;5285359;27;20351;-89
2021/08/01 04:04:15;;;;;;;;;;;;;;;22.89;60.41;99045.69;5306517;27;19981;-90
2021/08/01 04:06:40;;;;;;;;;;;;;;;22.81;60.41;99040.25;5280696;27;19964;-89
2021/08/01 04:09:05;;;;;;;;;;;;;;;22.74;60.41;99056.87;5280080;27;19968;-90
2021/08/01 04:11:32;;;;;;;;;;;;;;;22.43;60.39;99072.94;5280232;27;19967;-90
2021/08/01 04:13:57;;;;;;;;;;;;;;;22.47;60.39;99042.50;5280162;27;19988;-89
2021/08/01 04:16:22;;;;;;;;;;;;;;;22.58;60.38;99012.38;5260886;27;30896;-90
2021/08/01 04:18:48;;;;;;;;;;;;;;;22.79;60.40;99018.31;5261556;27;21055;-88
2021/08/01 04:21:13;;;;;;;;;;;;;;;22.85;60.41;99023.06;5299366;27;19965;-88
2021/08/01 04:23:38;;;;;;;;;;;;;;;23.05;60.42;99009.72;5279816;27;20359;-87
2021/08/01 04:26:04;;;;;;;;;;;;;;;23.05;60.42;99007.91;5280337;27;20326;-89
2021/08/01 04:28:29;;;;;;;;;;;;;;;23.16;60.42;98980.31;5280017;27;19960;-89
2021/08/01 04:30:54;;;;;;;;;;;;;;;23.13;60.42;98965.53;5280634;27;20229;-91
2021/08/01 04:33:20;;;;;;;;;;;;;;;23.26;60.42;98934.16;5262309;27;19969;-92
2021/08/01 04:35:45;;;;;;;;;;;;;;;23.20;60.42;98925.97;5280798;27;20673;-91
2021/08/01 04:38:11;;;;;;;;;;;;;;;23.29;60.43;98925.06;5261934;27;19960;-91
2021/08/01 04:40:36;;;;;;;;;;;;;;;23.30;60.43;98912.63;5262252;27;20076;-91
2021/08/01 04:43:01;;;;;;;;;;;;;;;23.38;60.44;98892.28;5261375;27;19964;-91
2021/08/01 04:45:26;;;;;;;;;;;;;;;23.34;60.43;98882.94;5260503;27;19984;-91
2021/08/01 04:47:52;;;;;;;;;;;;;;;23.23;60.43;98910.56;5261751;27;19981;-90
2021/08/01 04:50:17;;;;;;;;;;;;;;;23.23;60.43;98921.19;5279671;27;20492;-91
2021/08/01 04:52:43;;;;;;;;;;;;;;;23.36;60.44;98942.06;5279817;27;19976;-93
2021/08/01 04:55:08;;;;;;;;;;;;;;;23.46;60.44;98950.81;5261620;27;20016;-92
2021/08/01 04:57:33;;;;;;;;;;;;;;;23.47;60.44;98957.78;5279895;27;20260;-92
2021/08/01 04:59:58;;;;;;;;;;;;;;;23.55;60.44;98965.84;5279657;27;20215;-91
2021/08/01 05:02:24;;;;;;;;;;;;;;;23.76;60.46;98970.06;5261809;27;19987;-90
2021/08/01 05:04:49;;;;;;;;;;;;;;;23.82;60.45;98985.38;5299747;27;20018;-92
2021/08/01 05:07:14;;;;;;;;;;;;;;;23.85;60.45;98982.44;5276536;27;99288;-91
2021/08/01 05:09:39;;;;;;;;;;;;;;;23.81;60.45;98981.91;5261451;27;19968;-92
2021/08/01 05:12:05;;;;;;;;;;;;;;;23.76;60.46;98967.41;5261961;27;19976;-90
2021/08/01 05:14:30;;;;;;;;;;;;;;;23.98;60.47;98961.62;5261716;27;19995;-89
2021/08/01 05:16:56;;;;;;;;;;;;;;;24.10;60.47;98948.91;5279878;27;19980;-89
2021/08/01 05:19:21;;;;;;;;;;;;;;;24.12;60.47;98937.12;5279249;27;20298;-89
2021/08/01 05:21:47;;;;;;;;;;;;;;;24.12;60.47;98942.44;5279489;27;19984;-87
2021/08/01 05:24:12;;;;;;;;;;;;;;;24.38;60.49;98931.03;5298426;27;28097;-88
2021/08/01 05:26:37;;;;;;;;;;;;;;;24.37;60.48;98919.56;5261426;27;19998;-89
2021/08/01 05:29:02;;;;;;;;;;;;;;;24.52;60.49;98911.00;5298674;27;27822;-89
2021/08/01 05:31:27;;;;;;;;;;;;;;;24.66;60.49;98905.94;5279317;27;19968;-89
2021/08/01 05:33:53;;;;;;;;;;;;;;;24.74;60.49;98916.59;5299483;27;19984;-90
2021/08/01 05:36:18;;;;;;;;;;;;;;;24.83;60.50;98908.63;5261322;27;20038;-89
2021/08/01 05:38:43;;;;;;;;;;;;;;;24.99;60.51;98906.06;5299042;27;19975;-89
2021/08/01 05:41:08;;;;;;;;;;;;;;;25.06;60.51;98907.91;5299096;27;19996;-89
2021/08/01 05:43:34;;;;;;;;;;;;;;;25.21;60.52;98913.47;5261122;27;19975;-89
2021/08/01 05:45:59;;;;;;;;;;;;;;;25.27;60.53;98912.81;5261552;27;19995;-90
2021/08/01 05:48:24;;;;;;;;;;;;;;;25.27;60.53;98904.00;5261408;27;20218;-90
2021/08/01 05:50:50;;;;;;;;;;;;;;;25.33;60.53;98896.19;5279066;27;19980;-92
2021/08/01 05:53:20;;;;;;;;;;;;;;;25.20;60.52;98895.00;5261284;27;20014;-91
2021/08/01 05:55:45;;;;;;;;;;;;;;;25.15;60.51;98894.66;5280546;27;20020;-91
2021/08/01 05:58:10;;;;;;;;;;;;;;;25.42;60.54;98885.53;5278864;27;29303;-91
2021/08/01 06:00:36;;;;;;;;;;;;;;;25.50;60.54;98875.72;5278954;27;23246;-91
2021/08/01 06:03:01;;;;;;;;;;;;;;;25.64;60.55;98872.41;5299145;27;21100;-91
2021/08/01 06:05:26;;;;;;;;;;;;;;;25.67;60.55;98876.59;5263152;27;20042;-91
2021/08/01 06:07:51;;;;;;;;;;;;;;;25.68;60.55;98881.75;5262737;27;19972;-92
2021/08/01 06:10:17;;;;;;;;;;;;;;;25.74;60.56;98877.59;5294829;27;20980;-91
2021/08/01 06:12:42;;;;;;;;;;;;;;;25.76;60.55;98883.59;5287164;27;20010;-91
2021/08/01 06:15:07;;;;;;;;;;;;;;;25.95;60.57;98880.59;5280012;27;19986;-92
2021/08/01 06:17:32;;;;;;;;;;;;;;;26.04;60.57;98881.44;5280228;27;20002;-91
2021/08/01 06:19:58;;;;;;;;;;;;;;;26.13;60.58;98879.56;5279160;27;20256;-93
2021/08/01 06:22:23;;;;;;;;;;;;;;;26.23;60.57;98867.69;5279953;27;19977;-89
2021/08/01 06:24:49;;;;;;;;;;;;;;;26.15;60.57;98862.41;5279627;27;20000;-91
2021/08/01 06:27:14;;;;;;;;;;;;;;;26.34;60.59;98842.53;5280221;27;20289;-91
2021/08/01 06:29:39;;;;;;;;;;;;;;;26.34;60.58;98849.69;5261217;27;20448;-93
2021/08/01 06:32:04;;;;;;;;;;;;;;;26.37;60.59;98849.38;5261961;27;20006;-93
2021/08/01 06:34:30;;;;;;;;;;;;;;;26.51;60.59;98846.81;5261857;27;20011;-92
2021/08/01 06:36:55;;;;;;;;;;;;;;;26.57;60.60;98832.78;5280182;27;19980;-92
2021/08/01 06:39:20;;;;;;;;;;;;;;;26.45;60.59;98839.50;5262067;27;20335;-92
2021/08/01 06:41:48;;;;;;;;;;;;;;;26.37;60.59;98844.88;5262740;27;19997;-94
2021/08/01 06:44:15;;;;;;;;;;;;;;;26.51;60.60;98846.00;5269351;27;19947;-95
2021/08/01 06:46:41;;;;;;;;;;;;;;;26.37;60.59;98846.69;5280102;27;19957;-95
2021/08/01 06:49:06;;;;;;;;;;;;;;;26.31;60.58;98856.19;5279490;27;19991;-93
2021/08/01 06:51:31;;;;;;;;;;;;;;;26.30;60.58;98878.53;5270638;27;19976;-93
2021/08/01 06:53:56;;;;;;;;;;;;;;;26.35;60.59;98891.41;5265313;27;19965;-93
2021/08/01 06:56:22;;;;;;;;;;;;;;;26.54;60.59;98877.69;5282214;27;20257;-95
2021/08/01 06:58:47;;;;;;;;;;;;;;;26.62;60.60;98872.31;5280987;27;19978;-94
2021/08/01 07:01:15;;;;;;;;;;;;;;;26.81;60.61;98884.41;5262646;27;19972;-95
2021/08/01 07:03:40;;;;;;;;;;;;;;;26.83;60.61;98863.72;5263028;27;19978;-94
2021/08/01 07:06:08;;;;;;;;;;;;;;;26.81;60.61;98881.75;5281509;27;19964;-94
2021/08/01 07:08:34;;;;;;;;;;;;;;;26.62;60.60;98901.66;5262874;27;19994;-93
2021/08/01 07:10:59;;;;;;;;;;;;;;;26.43;60.59;98899.38;5263061;27;20039;-93
2021/08/01 07:13:24;;;;;;;;;;;;;;;26.43;60.59;98894.88;5262719;27;19986;-90
2021/08/01 07:15:50;;;;;;;;;;;;;;;26.35;60.59;98907.41;5264063;27;19978;-94
2021/08/01 07:18:35;;;;;;;;;;;;;;;26.48;60.59;98921.03;5264972;27;19975;-94
2021/08/01 07:21:01;;;;;;;;;;;;;;;26.60;60.60;98965.06;5264286;27;20350;-93
2021/08/01 07:23:27;;;;;;;;;;;;;;;26.57;60.60;99006.28;5308488;27;19957;-94
2021/08/01 07:25:52;;;;;;;;;;;;;;;26.52;60.59;98981.94;5269970;27;19974;-91
2021/08/01 07:28:17;;;;;;;;;;;;;;;26.35;60.59;99003.47;5279234;27;19972;-91
2021/08/01 07:30:43;;;;;;;;;;;;;;;26.47;60.59;98968.25;5279176;27;20207;-90
2021/08/01 07:33:08;;;;;;;;;;;;;;;26.21;60.58;98899.06;5281720;27;19969;-90
2021/08/01 07:35:33;;;;;;;;;;;;;;;26.19;60.58;98854.88;5281239;27;20007;-90
2021/08/01 07:37:58;;;;;;;;;;;;;;;26.04;60.57;98829.94;5281824;27;20300;-91
2021/08/01 07:40:23;;;;;;;;;;;;;;;25.94;60.58;98854.09;5281896;27;19971;-91
2021/08/01 07:42:49;;;;;;;;;;;;;;;25.83;60.56;98849.13;5263033;27;28251;-91
2021/08/01 07:45:34;;;;;;;;;;;;;;;25.62;60.56;98877.06;5281757;27;19976;-92
2021/08/01 07:47:59;;;;;;;;;;;;;;;25.87;60.57;98901.09;5281871;27;19984;-95
2021/08/01 07:50:24;;;;;;;;;;;;;;;25.92;60.57;98890.75;5264948;27;19978;-94
2021/08/01 07:52:50;;;;;;;;;;;;;;;25.96;60.57;98897.41;5265166;27;19998;-92
2021/08/01 07:55:15;;;;;;;;;;;;;;;26.08;60.57;98908.59;5264781;27;19974;-93
2021/08/01 07:57:41;;;;;;;;;;;;;;;26.10;60.58;98911.91;5265291;27;20360;-95
2021/08/01 08:00:06;;;;;;;;;;;;;;;26.18;60.58;98904.72;5282870;27;20016;-91
2021/08/01 08:02:31;;;;;;;;;;;;;;;26.20;60.59;98925.91;5263876;27;20016;-91
2021/08/01 08:04:57;;;;;;;;;;;;;;;26.04;60.58;98912.59;5264161;27;20314;-93
2021/08/01 08:07:22;;;;;;;;;;;;;;;26.08;60.57;98892.59;5264050;27;19994;-93
2021/08/01 08:09:47;;;;;;;;;;;;;;;26.01;60.56;98884.41;5263592;27;22297;-89
2021/08/01 08:12:12;;;;;;;;;;;;;;;25.99;60.56;98876.56;5264397;27;19961;-91
2021/08/01 08:14:38;;;;;;;;;;;;;;;26.01;60.56;98879.06;5268762;27;19972;-92
2021/08/01 08:17:03;;;;;;;;;;;;;;;26.19;60.58;98873.56;5273064;27;19967;-95
2021/08/01 08:19:28;;;;;;;;;;;;;;;26.27;60.58;98857.56;5265666;27;20015;-94
2021/08/01 08:21:54;;;;;;;;;;;;;;;26.53;60.59;98860.84;5264644;27;19964;-93
2021/08/01 08:24:19;;;;;;;;;;;;;;;26.47;60.59;98872.16;5302382;27;20226;-92
2021/08/01 08:26:45;;;;;;;;;;;;;;;26.49;60.60;98869.31;5263689;27;19999;-90
2021/08/01 08:29:10;;;;;;;;;;;;;;;26.47;60.59;98847.31;5263113;27;26900;-95
2021/08/01 08:31:35;;;;;;;;;;;;;;;26.44;60.59;98827.16;5263853;27;23660;-94
2021/08/01 08:34:00;;;;;;;;;;;;;;;26.42;60.60;98781.13;5265066;27;20007;-95
2021/08/01 08:36:25;;;;;;;;;;;;;;;26.60;60.60;98768.38;5265272;27;21754;-94
2021/08/01 08:38:51;;;;;;;;;;;;;;;26.59;60.60;98769.38;5264581;27;20010;-94
2021/08/01 08:41:16;;;;;;;;;;;;;;;26.52;60.60;98770.25;5265462;27;19967;-94
2021/08/01 08:43:45;;;;;;;;;;;;;;;26.64;60.60;98776.03;5263988;27;19971;-96
2021/08/01 08:46:10;;;;;;;;;;;;;;;27.04;60.61;98770.47;5263838;27;19972;-96
2021/08/01 08:48:35;;;;;;;;;;;;;;;27.26;60.63;98741.25;5263727;27;20034;-95
2021/08/01 08:51:01;;;;;;;;;;;;;;;27.32;60.63;98743.19;5282290;27;19968;-95
2021/08/01 08:53:26;;;;;;;;;;;;;;;27.20;60.63;98726.75;5263874;27;19976;-95
2021/08/01 08:55:52;;;;;;;;;;;;;;;27.32;60.63;98721.81;5264193;27;19971;-94
2021/08/01 08:58:20;;;;;;;;;;;;;;;27.57;60.64;98719.75;5262844;27;19972;-95
2021/08/01 09:00:45;;;;;;;;;;;;;;;27.81;60.65;98722.19;5263474;27;20337;-94
2021/08/01 09:03:11;;;;;;;;;;;;;;;27.92;60.67;98720.87;5262877;27;19979;-94
2021/08/01 09:05:36;;;;;;;;;;;;;;;27.82;60.65;98731.88;5280081;27;22363;-93
2021/08/01 09:08:01;;;;;;;;;;;;;;;27.93;60.66;98731.44;5256785;27;20330;-94
2021/08/01 09:10:27;;;;;;;;;;;;;;;28.26;60.68;98737.25;5262397;27;19968;-94
2021/08/01 09:12:54;;;;;;;;;;;;;;;28.41;60.69;98740.75;5262037;27;19991;-94
2021/08/01 09:15:27;;;;;;;;;;;;;;;28.48;60.70;98738.13;5280855;27;20595;-94
2021/08/01 09:17:53;;;;;;;;;;;;;;;28.62;60.71;98737.25;5262983;27;19984;-94
2021/08/01 09:20:19;;;;;;;;;;;;;;;28.80;60.71;98720.75;5262634;27;19956;-95
2021/08/01 09:23:02;;;;;;;;;;;;;;;28.95;60.72;98731.47;5280367;27;19982;-94
2021/08/01 09:25:28;;;;;;;;;;;;;;;29.06;60.72;98738.16;5262756;27;19979;-95
2021/08/01 09:28:04;;;;;;;;;;;;;;;28.98;60.72;98731.06;5281077;27;19976;-95
2021/08/01 09:30:45;;;;;;;;;;;;;;;29.23;60.73;98718.94;5262913;27;19990;-96
2021/08/01 09:33:10;;;;;;;;;;;;;;;29.26;60.73;98725.75;5280837;27;19971;-94
2021/08/01 09:35:35;;;;;;;;;;;;;;;29.54;60.74;98723.94;5281287;27;20328;-96
2021/08/01 09:38:00;;;;;;;;;;;;;;;29.89;60.76;98732.03;5263863;27;19995;-95
2021/08/01 09:40:30;;;;;;;;;;;;;;;30.06;60.78;98727.19;5262417;27;27117;-96
2021/08/01 09:43:04;;;;;;;;;;;;;;;30.12;60.77;98727.22;5262963;27;19991;-95
2021/08/01 09:45:29;;;;;;;;;;;;;;;30.20;60.77;98729.72;5262940;27;20068;-96
2021/08/01 09:47:54;;;;;;;;;;;;;;;30.20;60.78;98745.84;5262355;27;20294;-95
2021/08/01 09:50:20;;;;;;;;;;;;;;;30.46;60.78;98746.97;5260097;27;20306;-95
2021/08/01 09:52:45;;;;;;;;;;;;;;;30.35;60.79;98744.88;5262486;27;20006;-96
2021/08/01 09:55:17;;;;;;;;;;;;;;;30.45;60.79;98735.41;5262280;27;20353;-93
2021/08/01 09:57:52;;;;;;;;;;;;;;;30.62;60.79;98724.34;5280193;27;19982;-94
2021/08/01 10:00:18;;;;;;;;;;;;;;;30.70;60.81;98722.28;5261869;27;20053;-92
2021/08/01 10:02:43;;;;;;;;;;;;;;;31.03;60.82;98733.13;5279978;27;19964;-92
2021/08/01 10:05:17;;;;;;;;;;;;;;;31.56;60.85;98741.22;5261163;27;20125;-92
2021/08/01 10:07:44;;;;;;;;;;;;;;;31.95;60.87;98737.69;5299661;27;20031;-93
2021/08/01 10:10:18;;;;;;;;;;;;;;;32.22;60.88;98713.37;5280367;27;19960;-93
2021/08/01 10:12:44;;;;;;;;;;;;;;;32.34;60.88;98707.09;5280330;27;19956;-92
2021/08/01 10:15:10;;;;;;;;;;;;;;;32.29;60.88;98706.09;5280440;27;19964;-94
2021/08/01 10:17:35;;;;;;;;;;;;;;;32.42;60.89;98694.47;5269614;27;20022;-92
2021/08/01 10:20:00;;;;;;;;;;;;;;;32.31;60.89;98679.78;5296126;27;27144;-94
2021/08/01 10:22:25;;;;;;;;;;;;;;;32.15;60.88;98675.66;5266506;27;32911;-94
2021/08/01 10:24:54;;;;;;;;;;;;;;;31.96;60.87;98665.84;5261972;27;29971;-94
2021/08/01 10:27:19;;;;;;;;;;;;;;;32.11;60.87;98660.16;5264588;27;19976;-93
2021/08/01 10:29:45;;;;;;;;;;;;;;;32.36;60.88;98666.50;5281463;27;20026;-92
2021/08/01 10:32:11;;;;;;;;;;;;;;;32.56;60.90;98661.81;5265239;27;20002;-93
2021/08/01 10:34:40;;;;;;;;;;;;;;;32.72;60.91;98654.28;5289727;27;19965;-92
2021/08/01 10:37:07;;;;;;;;;;;;;;;32.84;60.91;98649.84;5289714;27;19948;-93
2021/08/01 10:39:32;;;;;;;;;;;;;;;32.99;60.91;98647.66;5287558;27;19979;-94
2021/08/01 10:41:58;;;;;;;;;;;;;;;32.96;60.92;98632.75;5264280;27;19988;-92
2021/08/01 10:44:23;;;;;;;;;;;;;;;33.00;60.92;98630.44;5303664;27;20014;-93
2021/08/01 10:46:49;;;;;;;;;;;;;;;32.98;60.92;98629.84;5281422;27;20004;-94
2021/08/01 10:49:14;;;;;;;;;;;;;;;33.26;60.94;98619.41;5280004;27;19960;-94
2021/08/01 10:51:39;;;;;;;;;;;;;;;33.53;60.95;98622.69;5280237;27;19968;-94
2021/08/01 10:54:31;;;;;;;;;;;;;;;33.60;60.95;98609.16;5261766;27;19980;-94
2021/08/01 10:57:13;;;;;;;;;;;;;;;33.60;60.96;98617.25;5277781;27;19979;-92
2021/08/01 10:59:45;;;;;;;;;;;;;;;33.86;60.97;98606.16;5262650;27;20306;-94
2021/08/01 11:02:11;;;;;;;;;;;;;;;33.92;60.97;98598.19;5280892;27;19985;-93
2021/08/01 11:04:38;;;;;;;;;;;;;;;33.83;60.97;98589.53;5262650;27;20633;-94
2021/08/01 11:07:03;;;;;;;;;;;;;;;34.05;60.97;98587.19;5262142;27;19983;-94
2021/08/01 11:09:28;;;;;;;;;;;;;;;34.14;60.97;98585.84;5261891;27;19968;-94
2021/08/01 11:12:12;;;;;;;;;;;;;;;34.20;60.98;98592.22;5261415;27;20738;-94
2021/08/01 11:14:44;;;;;;;;;;;;;;;34.44;60.99;98594.78;5280004;27;20332;-94
2021/08/01 11:17:10;;;;;;;;;;;;;;;34.62;61.00;98598.47;5280251;27;19984;-92
2021/08/01 11:19:36;;;;;;;;;;;;;;;34.69;61.01;98601.88;5260226;27;23147;-93
2021/08/01 11:22:02;;;;;;;;;;;;;;;34.64;61.01;98605.28;5262376;27;20014;-95
2021/08/01 11:24:27;;;;;;;;;;;;;;;34.65;61.01;98603.41;5261827;27;20004;-92
2021/08/01 11:27:04;;;;;;;;;;;;;;;34.70;61.02;98600.81;5261901;27;19975;-94
2021/08/01 11:29:30;;;;;;;;;;;;;;;34.65;61.01;98614.22;5299684;27;20039;-94
2021/08/01 11:32:07;;;;;;;;;;;;;;;34.71;61.02;98610.59;5260902;27;32249;-93
2021/08/01 11:34:33;;;;;;;;;;;;;;;34.69;61.02;98605.41;5261094;27;19972;-93
2021/08/01 11:37:17;;;;;;;;;;;;;;;34.63;61.01;98613.63;5260929;27;22522;-93
2021/08/01 11:39:51;;;;;;;;;;;;;;;34.81;61.01;98607.31;5278945;27;19982;-92
2021/08/01 11:42:28;;;;;;;;;;;;;;;34.94;61.03;98607.94;5261470;27;19979;-92
2021/08/01 11:44:57;;;;;;;;;;;;;;;34.98;61.02;98601.00;5279996;27;19964;-92
2021/08/01 11:47:22;;;;;;;;;;;;;;;35.08;61.03;98595.03;5261552;27;19996;-93
2021/08/01 11:49:48;;;;;;;;;;;;;;;35.24;61.03;98598.87;5260868;27;23868;-92
2021/08/01 11:52:19;;;;;;;;;;;;;;;35.24;61.03;98601.59;5279585;27;19968;-92
2021/08/01 11:54:44;;;;;;;;;;;;;;;35.30;61.04;98600.66;5279395;27;20013;-93
2021/08/01 11:57:13;;;;;;;;;;;;;;;35.33;61.04;98592.06;5261535;27;19999;-94
2021/08/01 11:59:38;;;;;;;;;;;;;;;35.13;61.03;98586.22;5261019;27;19967;-93
2021/08/01 12:02:14;;;;;;;;;;;;;;;35.11;61.02;98585.63;5279356;27;20034;-93
2021/08/01 12:04:42;;;;;;;;;;;;;;;35.06;61.03;98586.34;5261652;27;19991;-94
2021/08/01 12:07:08;;;;;;;;;;;;;;;34.95;61.03;98590.66;5279281;27;20383;-92
2021/08/01 12:09:37;;;;;;;;;;;;;;;34.82;61.02;98608.97;5260488;27;28834;-92
2021/08/01 12:12:02;;;;;;;;;;;;;;;34.78;61.02;98606.75;5261251;27;19980;-92
2021/08/01 12:14:31;;;;;;;;;;;;;;;34.64;61.02;98604.47;5279393;27;20250;-93
2021/08/01 12:16:57;;;;;;;;;;;;;;;34.52;61.01;98606.31;5279626;27;20039;-93
2021/08/01 12:19:23;;;;;;;;;;;;;;;34.45;61.01;98617.22;5280081;27;20222;-93
2021/08/01 12:21:49;;;;;;;;;;;;;;;34.34;61.00;98626.94;5262386;27;19978;-94
2021/08/01 12:24:33;;;;;;;;;;;;;;;34.23;61.00;98645.75;5287739;27;20030;-95
2021/08/01 12:26:59;;;;;;;;;;;;;;;33.98;60.99;98660.22;5270723;27;19986;-95
2021/08/01 12:29:28;;;;;;;;;;;;;;;33.70;60.97;98658.00;5283219;27;20013;-94
2021/08/01 12:31:53;;;;;;;;;;;;;;;33.50;60.96;98666.31;5280744;27;20386;-94
2021/08/01 12:34:21;;;;;;;;;;;;;;;33.34;60.96;98652.56;5262361;27;20014;-94
2021/08/01 12:36:47;;;;;;;;;;;;;;;32.91;60.93;98647.94;5262348;27;19980;-94
2021/08/01 12:39:16;;;;;;;;;;;;;;;32.67;60.91;98654.94;5262932;27;20244;-93
2021/08/01 12:41:41;;;;;;;;;;;;;;;32.63;60.92;98649.12;5263009;27;20335;-93
2021/08/01 12:44:13;;;;;;;;;;;;;;;32.56;60.91;98650.22;5262532;27;19964;-93
2021/08/01 12:46:38;;;;;;;;;;;;;;;32.33;60.90;98654.28;5262761;27;19976;-93